sensor_id;sensor_type;location;lat;lon;timestamp;pressure;altitude;pressure_sealevel;temperature;humidity
4469;BME280;2247;42.666;23.292;2024-02-26T00:01:49;93927.94;;;14.16;58.83
4469;BME280;2247;42.666;23.292;2024-02-26T00:04:16;93917.13;;;14.12;58.32
4469;BME280;2247;42.666;23.292;2024-02-26T00:06:43;93923.72;;;14.15;58.36
4469;BME280;2247;42.666;23.292;2024-02-26T00:09:27;93912.13;;;14.11;58.52
4469;BME280;2247;42.666;23.292;2024-02-26T00:11:54;93920.56;;;14.13;58.92
4469;BME280;2247;42.666;23.292;2024-02-26T00:14:21;93923.72;;;14.15;58.76
4469;BME280;2247;42.666;23.292;2024-02-26T00:16:50;93921.97;;;14.10;58.76
4469;BME280;2247;42.666;23.292;2024-02-26T00:19:17;93924.94;;;14.09;58.78
4469;BME280;2247;42.666;23.292;2024-02-26T00:21:44;93911.69;;;14.09;59.03
4469;BME280;2247;42.666;23.292;2024-02-26T00:24:11;93909.50;;;14.11;59.55
4469;BME280;2247;42.666;23.292;2024-02-26T00:26:38;93900.75;;;14.02;59.01
4469;BME280;2247;42.666;23.292;2024-02-26T00:29:04;93906.03;;;14.02;58.72
4469;BME280;2247;42.666;23.292;2024-02-26T00:31:31;93901.63;;;13.97;58.97
4469;BME280;2247;42.666;23.292;2024-02-26T00:34:00;93903.38;;;14.02;58.53
4469;BME280;2247;42.666;23.292;2024-02-26T00:36:27;93893.59;;;14.11;58.32
4469;BME280;2247;42.666;23.292;2024-02-26T00:38:54;93893.16;;;14.17;58.10
4469;BME280;2247;42.666;23.292;2024-02-26T00:41:21;93894.28;;;14.16;57.64
4469;BME280;2247;42.666;23.292;2024-02-26T00:43:48;93883.66;;;14.16;58.31
4469;BME280;2247;42.666;23.292;2024-02-26T00:46:15;93876.63;;;14.12;58.46
4469;BME280;2247;42.666;23.292;2024-02-26T00:48:42;93881.91;;;14.12;58.21
4469;BME280;2247;42.666;23.292;2024-02-26T00:51:10;93882.53;;;14.09;58.63
4469;BME280;2247;42.666;23.292;2024-02-26T00:53:37;93880.97;;;14.08;58.65
4469;BME280;2247;42.666;23.292;2024-02-26T00:56:04;93884.88;;;14.10;58.89
4469;BME280;2247;42.666;23.292;2024-02-26T00:58:32;93878.66;;;14.15;58.32
4469;BME280;2247;42.666;23.292;2024-02-26T01:00:59;93874.16;;;14.15;58.28
4469;BME280;2247;42.666;23.292;2024-02-26T01:03:26;93875.38;;;14.18;58.70
4469;BME280;2247;42.666;23.292;2024-02-26T01:05:52;93871.50;;;14.15;58.73
4469;BME280;2247;42.666;23.292;2024-02-26T01:08:21;93859.34;;;14.14;58.43
4469;BME280;2247;42.666;23.292;2024-02-26T01:10:48;93874.44;;;14.14;59.11
4469;BME280;2247;42.666;23.292;2024-02-26T01:13:15;93866.78;;;14.12;58.66
4469;BME280;2247;42.666;23.292;2024-02-26T01:15:43;93846.56;;;13.86;58.94
4469;BME280;2247;42.666;23.292;2024-02-26T01:18:10;93869.59;;;14.07;59.09
4469;BME280;2247;42.666;23.292;2024-02-26T01:20:37;93838.94;;;13.84;59.44
4469;BME280;2247;42.666;23.292;2024-02-26T01:23:04;93859.44;;;14.01;59.37
4469;BME280;2247;42.666;23.292;2024-02-26T01:25:32;93875.66;;;14.08;59.23
4469;BME280;2247;42.666;23.292;2024-02-26T01:27:59;93871.94;;;14.09;59.57
4469;BME280;2247;42.666;23.292;2024-02-26T01:30:26;93865.22;;;14.11;59.08
4469;BME280;2247;42.666;23.292;2024-02-26T01:32:53;93867.59;;;14.13;59.12
4469;BME280;2247;42.666;23.292;2024-02-26T01:35:20;93836.06;;;14.03;59.09
4469;BME280;2247;42.666;23.292;2024-02-26T01:37:47;93837.31;;;14.05;59.42
4469;BME280;2247;42.666;23.292;2024-02-26T01:40:14;93834.03;;;14.00;58.91
4469;BME280;2247;42.666;23.292;2024-02-26T01:42:46;93852.66;;;14.17;59.22
4469;BME280;2247;42.666;23.292;2024-02-26T01:45:15;93857.47;;;14.15;59.06
4469;BME280;2247;42.666;23.292;2024-02-26T01:47:48;93855.31;;;14.17;58.61
4469;BME280;2247;42.666;23.292;2024-02-26T01:50:16;93856.53;;;14.19;59.03
4469;BME280;2247;42.666;23.292;2024-02-26T01:52:43;93856.53;;;14.19;58.68
4469;BME280;2247;42.666;23.292;2024-02-26T01:55:11;93851.53;;;14.18;58.42
4469;BME280;2247;42.666;23.292;2024-02-26T01:57:39;93854.38;;;14.22;58.74
4469;BME280;2247;42.666;23.292;2024-02-26T02:00:08;93852.50;;;14.22;58.70
4469;BME280;2247;42.666;23.292;2024-02-26T02:02:37;93854.53;;;14.25;58.48
4469;BME280;2247;42.666;23.292;2024-02-26T02:05:08;93847.22;;;14.22;58.19
4469;BME280;2247;42.666;23.292;2024-02-26T02:07:36;93855.94;;;14.23;58.34
4469;BME280;2247;42.666;23.292;2024-02-26T02:10:03;93854.53;;;14.25;58.14
4469;BME280;2247;42.666;23.292;2024-02-26T02:12:32;93860.94;;;14.24;58.08
4469;BME280;2247;42.666;23.292;2024-02-26T02:15:00;93852.50;;;14.22;58.82
4469;BME280;2247;42.666;23.292;2024-02-26T02:17:28;93848.28;;;14.21;58.35
4469;BME280;2247;42.666;23.292;2024-02-26T02:19:55;93851.25;;;14.19;58.80
4469;BME280;2247;42.666;23.292;2024-02-26T02:22:24;93852.03;;;14.20;58.86
4469;BME280;2247;42.666;23.292;2024-02-26T02:24:52;93848.91;;;14.18;58.92
4469;BME280;2247;42.666;23.292;2024-02-26T02:27:19;93845.66;;;14.21;58.83
4469;BME280;2247;42.666;23.292;2024-02-26T02:29:47;93847.50;;;14.20;58.74
4469;BME280;2247;42.666;23.292;2024-02-26T02:32:16;93843.00;;;14.21;58.97
4469;BME280;2247;42.666;23.292;2024-02-26T02:34:44;93838.28;;;14.18;59.03
4469;BME280;2247;42.666;23.292;2024-02-26T02:37:11;93840.94;;;14.18;59.01
4469;BME280;2247;42.666;23.292;2024-02-26T02:39:39;93845.47;;;14.17;58.78
4469;BME280;2247;42.666;23.292;2024-02-26T02:42:08;93850.47;;;14.19;58.86
4469;BME280;2247;42.666;23.292;2024-02-26T02:44:36;93847.34;;;14.17;59.36
4469;BME280;2247;42.666;23.292;2024-02-26T02:47:03;93853.75;;;14.16;59.49
4469;BME280;2247;42.666;23.292;2024-02-26T02:49:30;93846.56;;;14.16;59.12
4469;BME280;2247;42.666;23.292;2024-02-26T02:51:57;93861.69;;;14.16;59.14
4469;BME280;2247;42.666;23.292;2024-02-26T02:54:24;93876.19;;;14.18;59.52
4469;BME280;2247;42.666;23.292;2024-02-26T02:56:52;93867.63;;;14.22;59.33
4469;BME280;2247;42.666;23.292;2024-02-26T02:59:19;93833.28;;;14.08;59.17
4469;BME280;2247;42.666;23.292;2024-02-26T03:01:46;93858.91;;;14.21;59.11
4469;BME280;2247;42.666;23.292;2024-02-26T03:04:13;93842.34;;;14.15;59.41
4469;BME280;2247;42.666;23.292;2024-02-26T03:06:40;93810.91;;;13.92;59.23
4469;BME280;2247;42.666;23.292;2024-02-26T03:09:07;93851.88;;;14.16;59.64
4469;BME280;2247;42.666;23.292;2024-02-26T03:11:34;93856.72;;;14.23;59.71
4469;BME280;2247;42.666;23.292;2024-02-26T03:14:02;93860.00;;;14.29;59.06
4469;BME280;2247;42.666;23.292;2024-02-26T03:16:30;93863.44;;;14.29;59.21
4469;BME280;2247;42.666;23.292;2024-02-26T03:18:57;93859.72;;;14.30;59.17
4469;BME280;2247;42.666;23.292;2024-02-26T03:21:25;93858.28;;;14.24;58.96
4469;BME280;2247;42.666;23.292;2024-02-26T03:23:52;93854.53;;;14.25;59.45
4469;BME280;2247;42.666;23.292;2024-02-26T03:26:19;93790.66;;;13.87;59.22
4469;BME280;2247;42.666;23.292;2024-02-26T03:28:46;93844.06;;;14.20;59.51
4469;BME280;2247;42.666;23.292;2024-02-26T03:31:15;93839.13;;;14.27;58.86
4469;BME280;2247;42.666;23.292;2024-02-26T03:33:42;93846.28;;;14.27;59.20
4469;BME280;2247;42.666;23.292;2024-02-26T03:36:09;93840.97;;;14.27;58.88
4469;BME280;2247;42.666;23.292;2024-02-26T03:38:37;93839.41;;;14.26;59.24
4469;BME280;2247;42.666;23.292;2024-02-26T03:41:04;93837.59;;;14.35;58.82
4469;BME280;2247;42.666;23.292;2024-02-26T03:43:31;93842.88;;;14.35;59.05
4469;BME280;2247;42.666;23.292;2024-02-26T03:45:58;93843.47;;;14.32;58.75
4469;BME280;2247;42.666;23.292;2024-02-26T03:48:26;93841.47;;;14.29;58.84
4469;BME280;2247;42.666;23.292;2024-02-26T03:50:54;93825.91;;;14.36;58.93
4469;BME280;2247;42.666;23.292;2024-02-26T03:53:21;93825.59;;;14.37;58.81
4469;BME280;2247;42.666;23.292;2024-02-26T03:55:48;93834.03;;;14.39;58.20
4469;BME280;2247;42.666;23.292;2024-02-26T03:58:17;93832.72;;;14.28;58.48
4469;BME280;2247;42.666;23.292;2024-02-26T04:00:44;93836.16;;;14.29;59.13
4469;BME280;2247;42.666;23.292;2024-02-26T04:03:13;93836.31;;;14.24;58.92
4469;BME280;2247;42.666;23.292;2024-02-26T04:05:41;93828.66;;;14.22;58.78
4469;BME280;2247;42.666;23.292;2024-02-26T04:08:08;93819.44;;;14.19;59.42
4469;BME280;2247;42.666;23.292;2024-02-26T04:10:36;93835.97;;;14.16;59.03
4469;BME280;2247;42.666;23.292;2024-02-26T04:13:04;93783.63;;;13.83;59.43
4469;BME280;2247;42.666;23.292;2024-02-26T04:15:31;93833.78;;;14.18;59.42
4469;BME280;2247;42.666;23.292;2024-02-26T04:17:58;93821.47;;;14.14;59.66
4469;BME280;2247;42.666;23.292;2024-02-26T04:20:25;93811.00;;;14.09;59.32
4469;BME280;2247;42.666;23.292;2024-02-26T04:22:53;93813.66;;;14.09;59.50
4469;BME280;2247;42.666;23.292;2024-02-26T04:25:20;93822.06;;;14.11;59.25
4469;BME280;2247;42.666;23.292;2024-02-26T04:27:47;93825.69;;;14.15;59.21
4469;BME280;2247;42.666;23.292;2024-02-26T04:30:14;93815.66;;;14.12;59.59
4469;BME280;2247;42.666;23.292;2024-02-26T04:32:42;93810.22;;;14.08;59.26
4469;BME280;2247;42.666;23.292;2024-02-26T04:35:10;93787.38;;;13.90;59.55
4469;BME280;2247;42.666;23.292;2024-02-26T04:37:37;93808.47;;;13.95;59.15
4469;BME280;2247;42.666;23.292;2024-02-26T04:40:07;93816.56;;;13.99;59.66
4469;BME280;2247;42.666;23.292;2024-02-26T04:42:34;93802.06;;;13.96;59.61
4469;BME280;2247;42.666;23.292;2024-02-26T04:45:01;93790.34;;;13.89;59.49
4469;BME280;2247;42.666;23.292;2024-02-26T04:47:28;93782.06;;;13.82;59.93
4469;BME280;2247;42.666;23.292;2024-02-26T04:49:56;93808.34;;;14.09;59.80
4469;BME280;2247;42.666;23.292;2024-02-26T04:52:23;93786.47;;;13.95;60.25
4469;BME280;2247;42.666;23.292;2024-02-26T04:54:50;93822.53;;;14.13;59.97
4469;BME280;2247;42.666;23.292;2024-02-26T04:57:18;93822.16;;;13.97;59.91
4469;BME280;2247;42.666;23.292;2024-02-26T04:59:45;93812.47;;;13.93;60.11
4469;BME280;2247;42.666;23.292;2024-02-26T05:07:23;93839.47;;;13.95;61.10
4469;BME280;2247;42.666;23.292;2024-02-26T05:09:50;93844.75;;;13.95;61.26
4469;BME280;2247;42.666;23.292;2024-02-26T05:12:19;93842.69;;;13.92;61.03
4469;BME280;2247;42.666;23.292;2024-02-26T05:14:46;93846.63;;;13.94;61.15
4469;BME280;2247;42.666;23.292;2024-02-26T05:17:13;93856.91;;;13.96;61.09
4469;BME280;2247;42.666;23.292;2024-02-26T05:19:40;93855.94;;;13.92;61.70
4469;BME280;2247;42.666;23.292;2024-02-26T05:22:07;93856.91;;;13.96;61.36
4469;BME280;2247;42.666;23.292;2024-02-26T05:24:34;93860.03;;;13.98;61.43
4469;BME280;2247;42.666;23.292;2024-02-26T05:27:04;93862.88;;;14.01;61.50
4469;BME280;2247;42.666;23.292;2024-02-26T05:29:32;93859.44;;;14.01;61.58
4469;BME280;2247;42.666;23.292;2024-02-26T05:31:59;93865.81;;;14.00;61.37
4469;BME280;2247;42.666;23.292;2024-02-26T05:34:26;93872.38;;;14.02;61.10
4469;BME280;2247;42.666;23.292;2024-02-26T05:36:53;93874.84;;;13.99;61.15
4469;BME280;2247;42.666;23.292;2024-02-26T05:39:20;93886.72;;;14.01;61.09
4469;BME280;2247;42.666;23.292;2024-02-26T05:41:47;93877.97;;;14.01;61.47
4469;BME280;2247;42.666;23.292;2024-02-26T05:44:15;93824.81;;;13.66;61.66
4469;BME280;2247;42.666;23.292;2024-02-26T05:46:43;93885.91;;;14.01;61.68
4469;BME280;2247;42.666;23.292;2024-02-26T05:49:10;93882.78;;;13.99;61.53
4469;BME280;2247;42.666;23.292;2024-02-26T05:51:37;93880.78;;;14.04;61.75
4469;BME280;2247;42.666;23.292;2024-02-26T05:54:04;93881.75;;;14.08;61.37
4469;BME280;2247;42.666;23.292;2024-02-26T05:56:31;93882.34;;;14.05;61.54
4469;BME280;2247;42.666;23.292;2024-02-26T05:58:58;93883.75;;;14.03;61.67
4469;BME280;2247;42.666;23.292;2024-02-26T06:01:25;93885.72;;;13.97;61.78
4469;BME280;2247;42.666;23.292;2024-02-26T06:03:53;93882.19;;;14.02;61.91
4469;BME280;2247;42.666;23.292;2024-02-26T06:06:20;93882.78;;;13.99;61.49
4469;BME280;2247;42.666;23.292;2024-02-26T06:08:48;93872.31;;;13.94;61.59
4469;BME280;2247;42.666;23.292;2024-02-26T06:11:15;93902.22;;;14.16;61.72
4469;BME280;2247;42.666;23.292;2024-02-26T06:13:42;93900.03;;;14.18;61.68
4469;BME280;2247;42.666;23.292;2024-02-26T06:16:09;93894.63;;;14.24;61.16
4469;BME280;2247;42.666;23.292;2024-02-26T06:18:36;93904.59;;;14.27;61.02
4469;BME280;2247;42.666;23.292;2024-02-26T06:21:04;93896.50;;;14.32;61.17
4469;BME280;2247;42.666;23.292;2024-02-26T06:23:35;93902.28;;;14.34;61.11
4469;BME280;2247;42.666;23.292;2024-02-26T06:26:02;93895.31;;;14.38;60.18
4469;BME280;2247;42.666;23.292;2024-02-26T06:28:29;93896.09;;;14.38;60.53
4469;BME280;2247;42.666;23.292;2024-02-26T06:30:58;93880.41;;;14.19;60.20
4469;BME280;2247;42.666;23.292;2024-02-26T06:33:25;93895.13;;;14.34;60.67
4469;BME280;2247;42.666;23.292;2024-02-26T06:35:52;93886.69;;;14.32;60.46
4469;BME280;2247;42.666;23.292;2024-02-26T06:38:21;93896.59;;;14.49;60.11
4469;BME280;2247;42.666;23.292;2024-02-26T06:40:47;93903.78;;;14.48;60.02
4469;BME280;2247;42.666;23.292;2024-02-26T06:43:14;93901.91;;;14.49;59.83
4469;BME280;2247;42.666;23.292;2024-02-26T06:45:42;93901.72;;;14.45;59.86
4469;BME280;2247;42.666;23.292;2024-02-26T06:48:08;93901.75;;;14.54;59.66
4469;BME280;2247;42.666;23.292;2024-02-26T06:50:35;93902.06;;;14.52;59.97
4469;BME280;2247;42.666;23.292;2024-02-26T06:53:03;93899.75;;;14.51;59.66
4469;BME280;2247;42.666;23.292;2024-02-26T06:55:31;93906.44;;;14.48;59.69
4469;BME280;2247;42.666;23.292;2024-02-26T06:57:58;93895.19;;;14.43;59.98
4469;BME280;2247;42.666;23.292;2024-02-26T07:00:25;93895.00;;;14.39;60.06
4469;BME280;2247;42.666;23.292;2024-02-26T07:02:52;93896.19;;;14.33;59.97
4469;BME280;2247;42.666;23.292;2024-02-26T07:05:19;93900.41;;;14.34;60.21
4469;BME280;2247;42.666;23.292;2024-02-26T07:07:46;93902.94;;;14.39;59.46
4469;BME280;2247;42.666;23.292;2024-02-26T07:10:13;93902.34;;;14.42;59.48
4469;BME280;2247;42.666;23.292;2024-02-26T07:12:41;93907.78;;;14.37;59.38
4469;BME280;2247;42.666;23.292;2024-02-26T07:15:10;93912.59;;;14.35;58.76
4469;BME280;2247;42.666;23.292;2024-02-26T07:17:37;93921.91;;;14.33;58.74
4469;BME280;2247;42.666;23.292;2024-02-26T07:20:08;93911.16;;;14.29;58.71
4469;BME280;2247;42.666;23.292;2024-02-26T07:22:35;93916.75;;;14.28;58.14
4469;BME280;2247;42.666;23.292;2024-02-26T07:25:02;93920.78;;;14.25;58.29
4469;BME280;2247;42.666;23.292;2024-02-26T07:27:29;93918.91;;;14.26;58.90
4469;BME280;2247;42.666;23.292;2024-02-26T07:29:58;93909.09;;;14.26;58.93
4469;BME280;2247;42.666;23.292;2024-02-26T07:32:25;93915.69;;;14.29;59.03
4469;BME280;2247;42.666;23.292;2024-02-26T07:34:52;93908.38;;;14.34;58.82
4469;BME280;2247;42.666;23.292;2024-02-26T07:37:19;93914.03;;;14.41;59.26
4469;BME280;2247;42.666;23.292;2024-02-26T07:39:46;93919.03;;;14.43;59.05
4469;BME280;2247;42.666;23.292;2024-02-26T07:42:14;93917.38;;;14.55;58.99
4469;BME280;2247;42.666;23.292;2024-02-26T07:44:40;93919.13;;;14.69;59.48
4469;BME280;2247;42.666;23.292;2024-02-26T07:47:10;93912.13;;;14.81;58.70
4469;BME280;2247;42.666;23.292;2024-02-26T07:49:36;93916.69;;;14.89;57.76
4469;BME280;2247;42.666;23.292;2024-02-26T07:52:04;93912.03;;;14.86;57.42
4469;BME280;2247;42.666;23.292;2024-02-26T07:54:31;93919.53;;;14.93;57.27
4469;BME280;2247;42.666;23.292;2024-02-26T07:56:58;93919.34;;;14.89;57.32
4469;BME280;2247;42.666;23.292;2024-02-26T07:59:25;93915.91;;;14.89;57.09
4469;BME280;2247;42.666;23.292;2024-02-26T08:01:52;93908.25;;;14.87;57.44
4469;BME280;2247;42.666;23.292;2024-02-26T08:04:20;93902.94;;;14.87;57.52
4469;BME280;2247;42.666;23.292;2024-02-26T08:06:47;93907.19;;;14.97;57.57
4469;BME280;2247;42.666;23.292;2024-02-26T08:09:14;93905.63;;;14.96;57.56
4469;BME280;2247;42.666;23.292;2024-02-26T08:11:41;93908.13;;;15.01;57.58
4469;BME280;2247;42.666;23.292;2024-02-26T08:14:08;93911.09;;;15.00;57.65
4469;BME280;2247;42.666;23.292;2024-02-26T08:16:35;93915.16;;;14.97;57.85
4469;BME280;2247;42.666;23.292;2024-02-26T08:19:02;93899.56;;;15.13;57.61
4469;BME280;2247;42.666;23.292;2024-02-26T08:21:31;93910.34;;;15.16;57.46
4469;BME280;2247;42.666;23.292;2024-02-26T08:23:57;93902.22;;;15.21;57.62
4469;BME280;2247;42.666;23.292;2024-02-26T08:26:24;93910.03;;;15.26;57.90
4469;BME280;2247;42.666;23.292;2024-02-26T08:28:51;93903.31;;;15.29;57.84
4469;BME280;2247;42.666;23.292;2024-02-26T08:31:21;93905.19;;;15.37;57.99
4469;BME280;2247;42.666;23.292;2024-02-26T08:33:48;93905.66;;;15.39;57.68
4469;BME280;2247;42.666;23.292;2024-02-26T08:36:15;93902.25;;;15.47;57.33
4469;BME280;2247;42.666;23.292;2024-02-26T08:38:44;93904.25;;;15.50;57.69
4469;BME280;2247;42.666;23.292;2024-02-26T08:41:11;93903.16;;;15.51;57.10
4469;BME280;2247;42.666;23.292;2024-02-26T08:43:38;93904.16;;;15.55;58.01
4469;BME280;2247;42.666;23.292;2024-02-26T08:46:08;93912.69;;;15.52;57.27
4469;BME280;2247;42.666;23.292;2024-02-26T08:48:36;93908.03;;;15.58;57.41
4469;BME280;2247;42.666;23.292;2024-02-26T08:51:05;93900.84;;;15.58;57.27
4469;BME280;2247;42.666;23.292;2024-02-26T08:53:33;93868.19;;;15.41;56.88
4469;BME280;2247;42.666;23.292;2024-02-26T08:56:02;93872.72;;;15.49;57.02
4469;BME280;2247;42.666;23.292;2024-02-26T08:58:29;93905.53;;;15.70;56.71
4469;BME280;2247;42.666;23.292;2024-02-26T09:00:56;93893.97;;;15.74;56.42
4469;BME280;2247;42.666;23.292;2024-02-26T09:03:23;93886.31;;;15.82;56.63
4469;BME280;2247;42.666;23.292;2024-02-26T09:05:50;93860.22;;;15.66;55.91
4469;BME280;2247;42.666;23.292;2024-02-26T09:08:17;93883.91;;;15.97;54.90
4469;BME280;2247;42.666;23.292;2024-02-26T09:10:44;93881.25;;;15.97;54.67
4469;BME280;2247;42.666;23.292;2024-02-26T09:13:13;93886.31;;;15.82;53.69
4469;BME280;2247;42.666;23.292;2024-02-26T09:15:40;93884.88;;;15.84;53.62
4469;BME280;2247;42.666;23.292;2024-02-26T09:18:07;93876.41;;;15.91;53.23
4469;BME280;2247;42.666;23.292;2024-02-26T09:20:33;93900.66;;;15.89;53.07
4469;BME280;2247;42.666;23.292;2024-02-26T09:23:00;93892.25;;;15.70;53.14
4469;BME280;2247;42.666;23.292;2024-02-26T09:25:28;93890.84;;;15.72;53.36
4469;BME280;2247;42.666;23.292;2024-02-26T09:27:55;93890.53;;;15.65;53.56
4469;BME280;2247;42.666;23.292;2024-02-26T09:30:23;93882.25;;;15.67;54.80
4469;BME280;2247;42.666;23.292;2024-02-26T09:32:50;93879.44;;;15.72;53.96
4469;BME280;2247;42.666;23.292;2024-02-26T09:35:17;93862.53;;;15.51;54.01
4469;BME280;2247;42.666;23.292;2024-02-26T09:37:44;93890.69;;;15.69;54.20
4469;BME280;2247;42.666;23.292;2024-02-26T09:40:12;93887.56;;;15.67;54.33
4469;BME280;2247;42.666;23.292;2024-02-26T09:42:43;93872.25;;;15.38;53.75
4469;BME280;2247;42.666;23.292;2024-02-26T09:45:16;93871.94;;;15.57;54.40
4469;BME280;2247;42.666;23.292;2024-02-26T09:47:45;93879.28;;;15.60;54.15
4469;BME280;2247;42.666;23.292;2024-02-26T09:50:14;93869.28;;;15.48;53.82
4469;BME280;2247;42.666;23.292;2024-02-26T09:52:43;93842.72;;;15.22;53.70
4469;BME280;2247;42.666;23.292;2024-02-26T09:55:10;93880.69;;;15.49;54.16
4469;BME280;2247;42.666;23.292;2024-02-26T09:57:37;93841.66;;;15.32;53.64
4469;BME280;2247;42.666;23.292;2024-02-26T10:00:08;93857.25;;;15.51;53.93
4469;BME280;2247;42.666;23.292;2024-02-26T10:02:38;93865.41;;;15.54;54.08
4469;BME280;2247;42.666;23.292;2024-02-26T10:05:10;93871.03;;;15.53;54.32
4469;BME280;2247;42.666;23.292;2024-02-26T10:07:39;93852.13;;;15.54;53.72
4469;BME280;2247;42.666;23.292;2024-02-26T10:10:09;93862.25;;;15.52;53.85
4469;BME280;2247;42.666;23.292;2024-02-26T10:12:36;93851.16;;;15.50;53.73
4469;BME280;2247;42.666;23.292;2024-02-26T10:15:03;93849.16;;;15.56;52.95
4469;BME280;2247;42.666;23.292;2024-02-26T10:17:31;93855.69;;;15.50;53.34
4469;BME280;2247;42.666;23.292;2024-02-26T10:20:12;93837.13;;;15.41;53.46
4469;BME280;2247;42.666;23.292;2024-02-26T10:22:40;93842.72;;;15.48;53.51
4469;BME280;2247;42.666;23.292;2024-02-26T10:25:08;93834.78;;;15.40;53.49
4469;BME280;2247;42.666;23.292;2024-02-26T10:27:35;93854.31;;;15.35;53.40
4469;BME280;2247;42.666;23.292;2024-02-26T10:30:03;93834.63;;;15.27;53.38
4469;BME280;2247;42.666;23.292;2024-02-26T10:32:30;93831.81;;;15.32;53.51
4469;BME280;2247;42.666;23.292;2024-02-26T10:34:58;93850.56;;;15.27;53.41
4469;BME280;2247;42.666;23.292;2024-02-26T10:37:26;93821.34;;;15.27;54.00
4469;BME280;2247;42.666;23.292;2024-02-26T10:39:53;93818.19;;;15.43;53.67
4469;BME280;2247;42.666;23.292;2024-02-26T10:42:20;93826.81;;;15.48;52.47
4469;BME280;2247;42.666;23.292;2024-02-26T10:44:47;93834.63;;;15.53;51.99
4469;BME280;2247;42.666;23.292;2024-02-26T10:47:14;93813.19;;;15.50;52.49
4469;BME280;2247;42.666;23.292;2024-02-26T10:49:45;93817.72;;;15.49;52.52
4469;BME280;2247;42.666;23.292;2024-02-26T10:52:13;93831.16;;;15.44;51.58
4469;BME280;2247;42.666;23.292;2024-02-26T10:54:46;93814.00;;;15.42;52.09
4469;BME280;2247;42.666;23.292;2024-02-26T10:57:15;93804.44;;;15.49;51.97
4469;BME280;2247;42.666;23.292;2024-02-26T10:59:44;93827.41;;;15.45;52.41
4469;BME280;2247;42.666;23.292;2024-02-26T11:02:12;93822.88;;;15.46;52.20
4469;BME280;2247;42.666;23.292;2024-02-26T11:04:40;93799.47;;;15.48;52.12
4469;BME280;2247;42.666;23.292;2024-02-26T11:07:09;93794.13;;;15.56;52.36
4469;BME280;2247;42.666;23.292;2024-02-26T11:09:37;93821.19;;;15.58;51.63
4469;BME280;2247;42.666;23.292;2024-02-26T11:12:11;93805.69;;;15.52;51.24
4469;BME280;2247;42.666;23.292;2024-02-26T11:14:39;93761.25;;;15.14;51.54
4469;BME280;2247;42.666;23.292;2024-02-26T11:17:08;93812.25;;;15.46;51.00
4469;BME280;2247;42.666;23.292;2024-02-26T11:19:38;93821.31;;;15.45;51.31
4469;BME280;2247;42.666;23.292;2024-02-26T11:22:05;93813.34;;;15.45;51.33
4469;BME280;2247;42.666;23.292;2024-02-26T11:24:32;93810.69;;;15.36;50.98
4469;BME280;2247;42.666;23.292;2024-02-26T11:27:02;93802.28;;;15.25;51.86
4469;BME280;2247;42.666;23.292;2024-02-26T11:29:37;93834.16;;;15.25;51.46
4469;BME280;2247;42.666;23.292;2024-02-26T11:32:06;93829.00;;;15.12;52.06
4469;BME280;2247;42.666;23.292;2024-02-26T11:34:33;93805.41;;;15.10;52.28
4469;BME280;2247;42.666;23.292;2024-02-26T11:37:09;93839.44;;;15.17;52.35
4469;BME280;2247;42.666;23.292;2024-02-26T11:39:36;93780.28;;;15.08;52.24
4469;BME280;2247;42.666;23.292;2024-02-26T11:42:08;93785.16;;;15.14;52.57
4469;BME280;2247;42.666;23.292;2024-02-26T11:44:38;93806.50;;;15.18;52.34
4469;BME280;2247;42.666;23.292;2024-02-26T11:47:11;93789.97;;;15.21;52.46
4469;BME280;2247;42.666;23.292;2024-02-26T11:49:37;93806.97;;;15.28;51.80
4469;BME280;2247;42.666;23.292;2024-02-26T11:52:06;93771.53;;;15.24;51.82
4469;BME280;2247;42.666;23.292;2024-02-26T11:54:43;93781.25;;;14.86;52.09
4469;BME280;2247;42.666;23.292;2024-02-26T11:57:26;93772.66;;;15.06;51.81
4469;BME280;2247;42.666;23.292;2024-02-26T11:59:56;93783.88;;;15.20;51.92
4469;BME280;2247;42.666;23.292;2024-02-26T12:02:49;93780.59;;;15.32;51.91
4469;BME280;2247;42.666;23.292;2024-02-26T12:05:19;93774.31;;;15.36;50.83
4469;BME280;2247;42.666;23.292;2024-02-26T12:07:53;93793.84;;;15.41;49.95
4469;BME280;2247;42.666;23.292;2024-02-26T12:10:25;93786.66;;;15.41;49.45
4469;BME280;2247;42.666;23.292;2024-02-26T12:12:54;93797.41;;;15.45;49.67
4469;BME280;2247;42.666;23.292;2024-02-26T12:15:26;93812.75;;;15.39;50.07
4469;BME280;2247;42.666;23.292;2024-02-26T12:17:58;93800.38;;;15.43;49.89
4469;BME280;2247;42.666;23.292;2024-02-26T12:20:26;93773.88;;;15.26;49.62
4469;BME280;2247;42.666;23.292;2024-02-26T12:22:54;93786.03;;;15.53;49.46
4469;BME280;2247;42.666;23.292;2024-02-26T12:25:24;93797.44;;;15.53;49.27
4469;BME280;2247;42.666;23.292;2024-02-26T12:27:51;93801.97;;;15.53;49.32
4469;BME280;2247;42.666;23.292;2024-02-26T12:30:18;93793.06;;;15.57;49.74
4469;BME280;2247;42.666;23.292;2024-02-26T12:32:47;93794.91;;;15.65;49.21
4469;BME280;2247;42.666;23.292;2024-02-26T12:35:15;93803.03;;;15.52;48.78
4469;BME280;2247;42.666;23.292;2024-02-26T12:37:42;93787.13;;;15.60;49.20
4469;BME280;2247;42.666;23.292;2024-02-26T12:40:10;93787.53;;;15.71;48.41
4469;BME280;2247;42.666;23.292;2024-02-26T12:42:38;93769.16;;;15.49;47.76
4469;BME280;2247;42.666;23.292;2024-02-26T12:45:07;93799.13;;;15.75;48.23
4469;BME280;2247;42.666;23.292;2024-02-26T12:47:38;93793.63;;;15.80;48.60
4469;BME280;2247;42.666;23.292;2024-02-26T12:50:06;93778.66;;;15.75;48.00
4469;BME280;2247;42.666;23.292;2024-02-26T12:52:34;93800.97;;;15.83;47.95
4469;BME280;2247;42.666;23.292;2024-02-26T12:55:02;93777.50;;;15.85;48.12
4469;BME280;2247;42.666;23.292;2024-02-26T12:57:31;93805.44;;;15.91;47.49
4469;BME280;2247;42.666;23.292;2024-02-26T12:59:59;93785.56;;;15.97;47.31
4469;BME280;2247;42.666;23.292;2024-02-26T13:02:26;93769.50;;;15.94;47.42
4469;BME280;2247;42.666;23.292;2024-02-26T13:04:54;93786.50;;;16.01;47.06
4469;BME280;2247;42.666;23.292;2024-02-26T13:07:23;93779.91;;;16.07;46.91
4469;BME280;2247;42.666;23.292;2024-02-26T13:09:51;93779.91;;;16.07;46.49
4469;BME280;2247;42.666;23.292;2024-02-26T13:12:18;93782.53;;;16.16;46.29
4469;BME280;2247;42.666;23.292;2024-02-26T13:14:45;93798.31;;;16.21;45.93
4469;BME280;2247;42.666;23.292;2024-02-26T13:17:12;93771.88;;;16.25;46.06
4469;BME280;2247;42.666;23.292;2024-02-26T13:19:49;93774.31;;;16.00;45.51